Time;durP1;ratioP1;P1;durP2;ratioP2;P2;SDS_P1;SDS_P2;PMS_P1;PMS_P2;Temp;Humidity;BMP_temperature;BMP_pressure;BME280_temperature;BME280_humidity;BME280_pressure;Samples;Min_cycle;Max_cycle;Signal;HPM_P1;HPM_P2
2022/03/10 00:00:10;;;;;;;;;6.80;6.80;;;;;2.47;44.26;100729.78;5124372;27;8837;-66
2022/03/10 00:02:37;;;;;;;;;3.00;2.60;;;;;2.42;44.58;100738.75;5138784;27;8955;-65
2022/03/10 00:05:05;;;;;;;;;7.00;7.00;;;;;2.31;44.01;100741.72;5139275;27;8960;-65
2022/03/10 00:07:33;;;;;;;;;9.40;9.40;;;;;2.19;44.43;100736.88;5139018;27;8834;-64
2022/03/10 00:10:01;;;;;;;;;10.80;9.80;;;;;2.09;45.27;100743.34;5133448;27;8970;-65
2022/03/10 00:12:28;;;;;;;;;8.60;8.60;;;;;2.04;44.84;100745.25;5118179;28;8828;-64
2022/03/10 00:14:56;;;;;;;;;7.80;6.40;;;;;2.01;45.49;100748.00;5118224;28;8827;-65
2022/03/10 00:17:24;;;;;;;;;3.20;3.00;;;;;1.98;44.76;100747.22;5117625;28;8835;-65
2022/03/10 00:19:52;;;;;;;;;9.40;7.80;;;;;1.96;44.86;100760.38;5121574;27;9470;-65
2022/03/10 00:22:20;;;;;;;;;8.60;8.60;;;;;1.93;45.67;100754.38;5138901;27;8838;-66
2022/03/10 00:24:47;;;;;;;;;6.00;6.00;;;;;1.90;45.05;100754.50;5138851;27;9566;-65
2022/03/10 00:27:15;;;;;;;;;3.80;3.80;;;;;1.91;45.47;100756.19;5138443;27;8964;-69
2022/03/10 00:29:45;;;;;;;;;9.40;9.00;;;;;1.90;45.40;100755.31;5136635;27;8838;-66
2022/03/10 00:32:13;;;;;;;;;10.20;8.60;;;;;1.86;45.08;100758.09;5117959;28;8848;-65
2022/03/10 00:34:40;;;;;;;;;6.20;6.20;;;;;1.82;45.18;100762.59;5117873;28;8844;-65
2022/03/10 00:37:08;;;;;;;;;9.00;9.00;;;;;1.79;46.09;100757.44;5117269;28;8840;-65
2022/03/10 00:39:36;;;;;;;;;4.20;3.20;;;;;1.79;46.02;100761.81;5118199;27;8839;-65
2022/03/10 00:42:04;;;;;;;;;6.20;6.20;;;;;1.79;45.81;100769.69;5138345;27;8829;-65
2022/03/10 00:44:33;;;;;;;;;9.40;9.40;;;;;1.73;46.29;100768.13;5138011;27;8872;-65
2022/03/10 00:47:01;;;;;;;;;6.80;5.80;;;;;1.69;46.02;100771.78;5138412;27;8837;-65
2022/03/10 00:49:29;;;;;;;;;4.00;3.40;;;;;1.67;46.13;100772.72;5138190;27;9502;-64
2022/03/10 00:51:57;;;;;;;;;9.20;8.60;;;;;1.66;45.93;100774.47;5117604;27;8874;-66
2022/03/10 00:54:24;;;;;;;;;7.80;6.80;;;;;1.66;45.84;100777.09;5118046;28;8828;-65
2022/03/10 00:56:52;;;;;;;;;7.00;7.00;;;;;1.70;46.04;100776.13;5116642;28;9846;-65
2022/03/10 00:59:20;;;;;;;;;6.00;6.00;;;;;1.76;45.96;100781.16;5116658;28;8842;-65
2022/03/10 01:01:48;;;;;;;;;10.20;6.60;;;;;1.76;45.90;100782.94;5135906;27;8821;-65
2022/03/10 01:04:16;;;;;;;;;3.60;2.80;;;;;1.73;45.96;100783.88;5138328;27;8838;-65
2022/03/10 01:06:43;;;;;;;;;8.60;7.00;;;;;1.71;46.01;100782.19;5137054;27;8825;-64
2022/03/10 01:09:11;;;;;;;;;4.40;4.00;;;;;1.68;46.27;100779.69;5137415;27;9467;-64
2022/03/10 01:11:39;;;;;;;;;10.00;9.20;;;;;1.67;46.12;100776.19;5119931;27;8816;-65
2022/03/10 01:14:07;;;;;;;;;12.40;10.80;;;;;1.68;45.82;100777.91;5117463;28;8836;-65
2022/03/10 01:16:34;;;;;;;;;9.40;9.00;;;;;1.69;46.57;100770.91;5116944;28;8840;-65
2022/03/10 01:19:03;;;;;;;;;5.60;5.20;;;;;1.64;46.62;100770.16;5117114;28;9494;-65
2022/03/10 01:21:31;;;;;;;;;9.00;7.40;;;;;1.58;46.93;100768.59;5132484;27;8856;-65
2022/03/10 01:23:58;;;;;;;;;7.00;6.20;;;;;1.53;47.14;100767.88;5136829;27;8844;-64
2022/03/10 01:26:26;;;;;;;;;3.00;2.20;;;;;1.51;46.83;100767.06;5137778;27;9842;-65
2022/03/10 01:28:54;;;;;;;;;3.80;3.80;;;;;1.46;46.81;100774.19;5137656;27;8833;-65
2022/03/10 01:31:22;;;;;;;;;6.80;6.40;;;;;1.40;47.32;100765.66;5122615;27;8840;-65
2022/03/10 01:33:49;;;;;;;;;10.00;8.60;;;;;1.35;46.71;100764.94;5116804;28;8832;-66
2022/03/10 01:36:17;;;;;;;;;9.20;8.60;;;;;1.33;46.82;100761.50;5116994;28;8854;-65
2022/03/10 01:38:46;;;;;;;;;4.00;3.80;;;;;1.33;47.59;100757.13;5117192;28;8850;-65
2022/03/10 01:41:14;;;;;;;;;6.80;6.40;;;;;1.35;47.01;100752.69;5129151;27;8818;-65
2022/03/10 01:43:41;;;;;;;;;6.80;6.80;;;;;1.38;46.65;100756.97;5137535;27;8872;-65
2022/03/10 01:46:09;;;;;;;;;7.00;6.80;;;;;1.39;47.02;100756.06;5136845;27;8832;-65
2022/03/10 01:48:37;;;;;;;;;9.00;9.00;;;;;1.35;47.32;100755.31;5136830;27;8825;-66
2022/03/10 01:51:05;;;;;;;;;7.00;7.00;;;;;1.34;46.99;100753.59;5124811;27;8879;-69
2022/03/10 01:53:32;;;;;;;;;9.00;6.60;;;;;1.34;46.99;100758.84;5116167;28;8860;-65
2022/03/10 01:56:00;;;;;;;;;7.00;6.60;;;;;1.33;47.35;100746.63;5116202;28;8827;-65
2022/03/10 01:58:28;;;;;;;;;5.80;5.60;;;;;1.31;47.18;100751.03;5115877;28;8828;-66
2022/03/10 02:00:56;;;;;;;;;6.40;6.00;;;;;1.32;47.56;100742.28;5125495;27;8801;-65
2022/03/10 02:03:24;;;;;;;;;6.00;5.20;;;;;1.35;47.09;100744.81;5136263;27;8856;-65
2022/03/10 02:05:52;;;;;;;;;15.00;8.60;;;;;1.34;46.93;100745.72;5136416;27;8853;-65
2022/03/10 02:11:05;;;;;;;;;7.00;7.00;;;;;1.26;47.47;100745.09;5126088;27;8866;-65
2022/03/10 02:13:32;;;;;;;;;8.20;8.20;;;;;1.23;47.30;100742.53;5115345;27;8816;-65
2022/03/10 02:18:45;;;;;;;;;5.40;5.40;;;;;1.23;47.26;100744.31;5115816;28;8827;-65
2022/03/10 02:21:14;;;;;;;;;3.80;3.80;;;;;1.19;47.18;100742.69;5127189;27;8830;-65
2022/03/10 02:23:43;;;;;;;;;6.60;6.60;;;;;1.16;47.14;100741.00;5136009;27;8829;-65
2022/03/10 02:26:11;;;;;;;;;10.60;9.00;;;;;1.15;47.99;100746.31;5095089;28;8839;-65
2022/03/10 02:28:39;;;;;;;;;6.00;6.00;;;;;1.12;47.91;100746.38;5095334;28;9561;-64
2022/03/10 02:31:07;;;;;;;;;6.80;6.40;;;;;1.08;48.12;100740.34;5083665;28;8834;-65
2022/03/10 02:33:34;;;;;;;;;4.40;3.80;;;;;1.06;47.89;100746.56;5074326;28;8835;-65
2022/03/10 02:36:02;;;;;;;;;4.00;4.00;;;;;1.05;48.50;100750.94;5074003;28;8857;-66
2022/03/10 02:38:33;;;;;;;;;9.80;8.60;;;;;1.01;48.45;100743.22;5074945;28;8846;-65
2022/03/10 02:41:00;;;;;;;;;5.40;5.40;;;;;0.95;48.29;100743.38;5083682;28;8817;-65
2022/03/10 02:43:28;;;;;;;;;6.80;6.80;;;;;0.89;48.23;100743.53;5095236;28;8835;-65
2022/03/10 02:45:56;;;;;;;;;4.00;4.00;;;;;0.86;48.47;100748.88;5092846;28;8839;-64
2022/03/10 02:48:25;;;;;;;;;6.80;6.80;;;;;0.83;48.15;100749.81;5095277;28;8856;-66
2022/03/10 02:50:52;;;;;;;;;4.00;3.40;;;;;0.79;48.29;100745.59;5086423;28;8842;-65
2022/03/10 02:53:23;;;;;;;;;8.60;6.60;;;;;0.75;48.75;100743.94;5075149;28;8838;-65
2022/03/10 02:55:51;;;;;;;;;3.00;1.00;;;;;0.71;48.18;100752.75;5075302;28;8834;-65
2022/03/10 02:58:19;;;;;;;;;6.60;6.00;;;;;0.67;48.76;100738.03;5074312;28;9703;-65
2022/03/10 03:00:47;;;;;;;;;4.00;4.00;;;;;0.69;48.52;100743.25;5080236;28;8856;-65
2022/03/10 03:03:14;;;;;;;;;3.20;3.00;;;;;0.73;48.81;100742.25;5094522;28;9529;-65
2022/03/10 03:05:42;;;;;;;;;9.60;7.00;;;;;0.75;48.75;100741.31;5094950;28;8839;-65
2022/03/10 03:08:11;;;;;;;;;3.60;3.60;;;;;0.78;48.48;100735.97;5094792;28;9617;-65
2022/03/10 03:10:38;;;;;;;;;5.80;5.00;;;;;0.81;48.67;100735.03;5088906;28;8857;-69
2022/03/10 03:13:06;;;;;;;;;6.00;6.00;;;;;0.80;48.30;100738.56;5074049;28;8838;-65
2022/03/10 03:15:34;;;;;;;;;7.00;7.00;;;;;0.80;48.49;100739.44;5074148;28;8838;-65
2022/03/10 03:18:02;;;;;;;;;5.20;3.40;;;;;0.83;48.56;100728.84;5074143;28;9667;-65
2022/03/10 03:20:30;;;;;;;;;4.40;4.40;;;;;0.82;48.35;100739.38;5080792;28;8917;-65
2022/03/10 03:22:58;;;;;;;;;1.80;1.00;;;;;0.76;48.64;100732.53;5097550;28;8866;-65
2022/03/10 03:25:25;;;;;;;;;6.00;5.60;;;;;0.65;49.01;100737.22;5126383;27;8944;-65
2022/03/10 03:27:53;;;;;;;;;3.80;3.80;;;;;0.54;49.23;100731.41;5139709;27;8859;-65
2022/03/10 03:30:21;;;;;;;;;7.20;6.40;;;;;0.45;48.99;100726.41;5136335;27;8841;-65
2022/03/10 03:32:49;;;;;;;;;7.40;7.40;;;;;0.38;49.67;100729.25;5118966;28;9993;-65
2022/03/10 03:35:17;;;;;;;;;7.20;6.00;;;;;0.34;50.02;100738.94;5119504;28;8852;-64
2022/03/10 03:37:45;;;;;;;;;6.00;6.00;;;;;0.39;49.81;100733.59;5118601;28;8849;-65
2022/03/10 03:40:13;;;;;;;;;1.00;1.00;;;;;0.46;49.92;100727.28;5119478;27;8863;-64
2022/03/10 03:42:40;;;;;;;;;2.60;1.80;;;;;0.52;49.49;100729.72;5139611;27;8839;-64
2022/03/10 03:45:08;;;;;;;;;7.40;7.40;;;;;0.56;49.44;100731.38;5139359;27;8837;-65
2022/03/10 03:47:36;;;;;;;;;5.60;5.60;;;;;0.59;49.34;100729.53;5139448;27;8821;-65
2022/03/10 03:50:04;;;;;;;;;8.40;8.40;;;;;0.59;49.65;100734.78;5138958;27;8837;-65
2022/03/10 03:52:31;;;;;;;;;9.00;8.60;;;;;0.59;49.64;100737.38;5097446;28;9569;-65
2022/03/10 03:54:59;;;;;;;;;4.80;3.40;;;;;0.63;49.61;100740.78;5097851;28;8867;-65
2022/03/10 03:57:26;;;;;;;;;6.40;6.40;;;;;0.68;49.51;100742.38;5097272;28;8856;-65
2022/03/10 03:59:54;;;;;;;;;9.00;6.20;;;;;0.74;49.20;100743.97;5097844;28;8833;-65
2022/03/10 04:02:22;;;;;;;;;6.00;5.20;;;;;0.78;49.15;100745.63;5136267;27;8845;-65
2022/03/10 04:04:50;;;;;;;;;6.80;6.60;;;;;0.78;49.21;100750.84;5139333;27;8841;-65
2022/03/10 04:07:18;;;;;;;;;3.00;3.00;;;;;0.78;49.75;100750.84;5125641;27;8831;-65
2022/03/10 04:09:46;;;;;;;;;5.20;5.20;;;;;0.73;49.33;100745.75;5133743;27;8831;-65
2022/03/10 04:12:15;;;;;;;;;5.20;4.80;;;;;0.64;49.98;100740.75;5138189;27;8838;-65
2022/03/10 04:14:43;;;;;;;;;10.40;9.00;;;;;0.54;50.17;100747.13;5138659;27;8826;-65
2022/03/10 04:17:11;;;;;;;;;7.40;6.20;;;;;0.46;50.30;100762.19;5138387;27;8848;-65
2022/03/10 04:19:39;;;;;;;;;6.00;4.80;;;;;0.36;50.11;100751.97;5123324;27;8814;-65
2022/03/10 04:22:06;;;;;;;;;5.20;4.00;;;;;0.28;50.29;100762.66;5118333;28;8864;-64
2022/03/10 04:24:34;;;;;;;;;3.00;3.00;;;;;0.20;50.73;100756.75;5117478;28;8820;-67
2022/03/10 04:27:02;;;;;;;;;7.00;7.00;;;;;0.18;50.50;100755.06;5118032;28;8970;-65
2022/03/10 04:29:30;;;;;;;;;9.00;5.00;;;;;0.17;50.67;100756.81;5130496;27;8838;-65
2022/03/10 04:31:57;;;;;;;;;8.60;6.00;;;;;0.18;50.40;100755.06;5137661;27;8857;-65
2022/03/10 04:34:25;;;;;;;;;4.00;3.60;;;;;0.18;50.61;100755.91;5138185;27;8822;-65
2022/03/10 04:36:53;;;;;;;;;5.80;5.40;;;;;0.21;50.48;100761.09;5138281;27;8822;-66
2022/03/10 04:39:23;;;;;;;;;3.00;3.00;;;;;0.23;50.21;100755.81;5125638;27;8824;-65
2022/03/10 04:41:51;;;;;;;;;6.20;6.00;;;;;0.19;50.42;100760.28;5117548;28;8880;-65
2022/03/10 04:44:19;;;;;;;;;6.80;6.80;;;;;0.15;50.83;100761.22;5099937;28;8835;-65
2022/03/10 04:46:46;;;;;;;;;3.20;2.60;;;;;0.11;50.73;100767.47;5117878;28;8970;-65
2022/03/10 04:49:15;;;;;;;;;8.20;7.00;;;;;0.09;50.68;100774.47;5127756;27;8821;-64
2022/03/10 04:51:43;;;;;;;;;6.40;6.20;;;;;0.10;50.78;100770.09;5137450;27;8879;-65
2022/03/10 04:54:10;;;;;;;;;4.00;4.00;;;;;0.10;50.37;100770.94;5138170;27;8825;-65
2022/03/10 04:56:38;;;;;;;;;6.00;4.40;;;;;0.12;50.11;100769.19;5137864;27;9789;-65
2022/03/10 04:59:06;;;;;;;;;3.80;3.20;;;;;0.17;50.53;100767.28;5127773;27;8962;-65
2022/03/10 05:01:34;;;;;;;;;3.00;1.00;;;;;0.18;50.63;100774.25;5117459;28;8844;-65
2022/03/10 05:04:01;;;;;;;;;5.60;4.80;;;;;0.15;50.58;100770.84;5116954;28;8828;-66
2022/03/10 05:06:31;;;;;;;;;6.00;5.60;;;;;0.09;50.05;100774.47;5117292;28;8865;-64
2022/03/10 05:08:59;;;;;;;;;7.80;7.60;;;;;0.02;50.78;100766.81;5124518;27;8810;-65
2022/03/10 05:11:26;;;;;;;;;10.80;9.00;;;;;-0.03;50.68;100773.06;5137411;27;8861;-65
2022/03/10 05:13:55;;;;;;;;;4.00;4.00;;;;;-0.06;51.30;100766.97;5137571;27;8830;-64
2022/03/10 05:16:23;;;;;;;;;6.00;6.00;;;;;-0.03;50.89;100770.44;5136933;27;9820;-65
2022/03/10 05:18:51;;;;;;;;;7.20;7.20;;;;;-0.01;50.73;100774.72;5130400;27;9497;-65
2022/03/10 05:21:19;;;;;;;;;6.80;6.40;;;;;-0.02;50.83;100771.25;5116311;28;8856;-64
2022/03/10 05:23:46;;;;;;;;;4.40;3.20;;;;;-0.03;51.42;100767.84;5116535;28;8913;-65
2022/03/10 05:26:14;;;;;;;;;7.60;7.60;;;;;-0.02;51.13;100759.91;5116959;28;8877;-64
2022/03/10 05:28:42;;;;;;;;;6.00;6.00;;;;;-0.08;51.14;100768.78;5121080;27;9493;-65
2022/03/10 05:31:10;;;;;;;;;5.60;5.60;;;;;-0.10;51.81;100767.09;5136398;27;8830;-65
2022/03/10 05:33:39;;;;;;;;;9.40;8.00;;;;;-0.13;51.41;100768.03;5136804;27;8842;-64
2022/03/10 05:36:06;;;;;;;;;4.40;4.00;;;;;-0.15;51.75;100765.50;5136666;27;8836;-64
2022/03/10 05:38:34;;;;;;;;;5.80;3.80;;;;;-0.13;52.08;100775.03;5133276;27;9572;-65
2022/03/10 05:41:03;;;;;;;;;6.60;6.00;;;;;-0.10;51.70;100767.09;5116359;28;8848;-65
2022/03/10 05:43:31;;;;;;;;;4.20;2.60;;;;;-0.08;52.00;100767.91;5115500;28;8854;-65
2022/03/10 05:45:59;;;;;;;;;4.00;4.00;;;;;-0.06;52.03;100763.53;5116211;28;9543;-66
2022/03/10 05:48:30;;;;;;;;;6.60;5.60;;;;;-0.07;52.16;100762.66;5118331;27;8846;-65
2022/03/10 05:50:58;;;;;;;;;4.00;4.00;;;;;-0.08;52.23;100760.94;5134087;27;8822;-64
2022/03/10 05:53:26;;;;;;;;;4.40;4.00;;;;;-0.08;51.80;100767.91;5115494;28;8839;-64
2022/03/10 05:55:54;;;;;;;;;3.60;3.00;;;;;-0.05;51.92;100771.31;5115469;28;8850;-65
2022/03/10 05:58:22;;;;;;;;;1.80;1.00;;;;;-0.02;52.13;100775.63;5115176;28;9704;-64
2022/03/10 06:00:49;;;;;;;;;0.60;0.60;;;;;0.01;51.72;100768.56;5114836;28;8870;-64
2022/03/10 06:03:19;;;;;;;;;6.00;6.00;;;;;0.02;51.95;100772.88;5134127;27;9495;-65
2022/03/10 06:05:48;;;;;;;;;6.20;6.20;;;;;0.05;51.28;100780.69;5125997;27;8823;-69
2022/03/10 06:08:16;;;;;;;;;8.60;7.60;;;;;0.08;51.18;100787.63;5133475;27;8829;-64
2022/03/10 06:10:44;;;;;;;;;4.00;4.00;;;;;0.11;51.50;100793.63;5134499;27;8845;-65
2022/03/10 06:13:11;;;;;;;;;4.00;3.80;;;;;0.12;51.72;100789.25;5129696;27;8974;-64
2022/03/10 06:15:39;;;;;;;;;4.00;3.00;;;;;0.12;51.49;100791.88;5120549;27;8849;-64
2022/03/10 06:18:08;;;;;;;;;5.60;5.20;;;;;0.11;51.58;100804.09;5116914;27;8950;-65
2022/03/10 06:20:35;;;;;;;;;7.00;4.00;;;;;0.10;52.00;100807.59;5115645;27;8839;-64
2022/03/10 06:23:03;;;;;;;;;5.20;4.00;;;;;0.11;51.33;100809.34;5114649;28;8968;-64
2022/03/10 06:25:31;;;;;;;;;3.80;3.80;;;;;0.12;51.27;100804.94;5114157;28;8847;-64
2022/03/10 06:27:58;;;;;;;;;6.00;4.80;;;;;0.13;51.18;100807.53;5132133;27;8810;-65
2022/03/10 06:30:26;;;;;;;;;6.40;4.80;;;;;0.19;51.51;100801.28;5134213;27;8976;-65
2022/03/10 06:32:54;;;;;;;;;6.00;5.20;;;;;0.30;51.57;100792.28;5133851;27;8844;-64
2022/03/10 06:35:22;;;;;;;;;7.80;6.20;;;;;0.41;51.23;100800.75;5133629;27;9610;-64
2022/03/10 06:37:52;;;;;;;;;6.40;6.40;;;;;0.58;50.79;100800.28;5119143;27;9563;-65
2022/03/10 06:40:20;;;;;;;;;9.40;6.80;;;;;0.71;50.60;100807.78;5112715;28;8982;-64
2022/03/10 06:42:48;;;;;;;;;5.20;3.60;;;;;0.80;50.34;100812.81;5112081;28;8850;-65
2022/03/10 06:45:15;;;;;;;;;4.80;4.80;;;;;0.85;50.14;100810.91;5112662;28;9525;-64
2022/03/10 06:47:43;;;;;;;;;3.20;3.20;;;;;0.91;49.98;100813.38;5117706;27;8829;-64
2022/03/10 06:50:11;;;;;;;;;5.40;4.80;;;;;0.96;49.78;100819.38;5133707;27;8964;-65
2022/03/10 06:52:38;;;;;;;;;4.80;4.40;;;;;1.00;50.62;100820.16;5133479;27;8988;-64
2022/03/10 06:55:06;;;;;;;;;4.00;4.00;;;;;1.01;49.99;100821.88;5132675;27;8845;-66
2022/03/10 06:57:34;;;;;;;;;9.20;9.00;;;;;1.02;49.89;100824.44;5129798;27;8898;-65
2022/03/10 07:00:02;;;;;;;;;5.20;4.00;;;;;1.07;50.04;100822.53;5113433;28;8836;-65
2022/03/10 07:02:30;;;;;;;;;6.20;4.80;;;;;1.08;50.37;100819.00;5113891;28;8950;-65
2022/03/10 07:04:58;;;;;;;;;7.40;6.40;;;;;1.12;50.30;100828.53;5112825;28;9540;-65
2022/03/10 07:07:26;;;;;;;;;10.80;9.60;;;;;1.18;49.74;100824.88;5114239;27;8844;-64
2022/03/10 07:09:53;;;;;;;;;4.80;4.80;;;;;1.24;49.64;100822.97;5114225;28;8820;-65
2022/03/10 07:12:22;;;;;;;;;6.60;6.00;;;;;1.31;50.17;100827.09;5112677;28;8828;-64
2022/03/10 07:14:49;;;;;;;;;9.40;9.40;;;;;1.45;49.86;100829.34;5113090;28;8850;-64
2022/03/10 07:17:17;;;;;;;;;12.80;12.20;;;;;1.57;49.69;100828.97;5112308;28;8836;-65
2022/03/10 07:19:46;;;;;;;;;11.20;11.20;;;;;1.69;49.54;100826.88;5128840;27;8890;-65
2022/03/10 07:22:13;;;;;;;;;9.00;7.40;;;;;1.82;49.92;100836.09;5133810;27;8911;-65
2022/03/10 07:24:41;;;;;;;;;10.00;9.00;;;;;1.97;49.27;100830.38;5133346;27;8848;-66
2022/03/10 07:27:10;;;;;;;;;18.20;16.80;;;;;2.14;49.08;100835.97;5132586;27;8826;-65
2022/03/10 07:29:38;;;;;;;;;12.20;10.80;;;;;2.34;48.98;100835.34;5117728;28;8832;-65
2022/03/10 07:32:05;;;;;;;;;12.20;12.20;;;;;2.54;48.69;100827.66;5111963;28;8840;-65
2022/03/10 07:34:35;;;;;;;;;12.00;11.20;;;;;2.75;48.26;100835.72;5111566;28;8863;-65
2022/03/10 07:37:02;;;;;;;;;11.80;11.20;;;;;2.97;47.79;100828.81;5112326;28;8835;-66
2022/03/10 07:39:30;;;;;;;;;10.40;10.00;;;;;3.24;48.37;100822.56;5114207;28;8823;-65
2022/03/10 07:42:00;;;;;;;;;9.60;8.20;;;;;3.59;47.65;100831.81;5111785;28;8852;-66
2022/03/10 07:44:28;;;;;;;;;9.40;7.00;;;;;3.99;47.07;100825.84;5111858;28;8823;-65
2022/03/10 07:46:56;;;;;;;;;13.00;12.00;;;;;4.47;47.40;100823.00;5111165;28;8830;-65
2022/03/10 07:49:23;;;;;;;;;9.80;9.60;;;;;4.95;46.22;100820.97;5120077;27;8826;-65
2022/03/10 07:51:51;;;;;;;;;11.60;10.40;;;;;5.41;45.89;100820.69;5132223;27;8880;-66
2022/03/10 07:54:19;;;;;;;;;11.20;8.60;;;;;5.77;46.09;100819.84;5131394;27;8860;-65
2022/03/10 07:56:47;;;;;;;;;12.60;10.00;;;;;6.00;45.28;100814.38;5132119;27;8834;-66
2022/03/10 07:59:14;;;;;;;;;10.40;10.40;;;;;6.16;45.42;100811.88;5124610;28;8842;-65
2022/03/10 08:01:42;;;;;;;;;10.80;10.00;;;;;6.31;45.08;100809.34;5112033;28;8916;-65
2022/03/10 08:04:12;;;;;;;;;9.00;9.00;;;;;6.45;44.70;100796.31;5111247;28;9540;-66
2022/03/10 08:06:39;;;;;;;;;11.80;11.60;;;;;6.63;44.71;100800.72;5115411;28;8839;-66
2022/03/10 08:09:10;;;;;;;;;12.00;12.00;;;;;6.88;44.37;100800.31;5121551;27;8813;-66
2022/03/10 08:11:39;;;;;;;;;15.00;12.40;;;;;7.15;44.44;100793.59;5136172;27;8842;-66
2022/03/10 08:14:08;;;;;;;;;11.60;9.40;;;;;7.43;43.73;100791.22;5136234;27;8856;-66
2022/03/10 08:16:36;;;;;;;;;17.60;15.40;;;;;7.71;43.40;100789.66;5136302;27;8833;-65
2022/03/10 08:19:05;;;;;;;;;10.60;10.40;;;;;7.93;43.00;100788.41;5130739;27;8966;-66
2022/03/10 08:21:32;;;;;;;;;13.00;10.40;;;;;8.07;43.22;100780.50;5115647;28;8886;-66
2022/03/10 08:24:00;;;;;;;;;14.20;13.40;;;;;8.17;42.91;100781.72;5114179;28;8843;-66
2022/03/10 08:26:28;;;;;;;;;15.80;15.20;;;;;8.29;43.08;100780.19;5115653;28;8920;-66
2022/03/10 08:28:56;;;;;;;;;16.40;15.40;;;;;8.37;42.98;100778.81;5118357;27;8817;-66
2022/03/10 08:31:24;;;;;;;;;10.00;10.00;;;;;8.49;43.28;100780.75;5135705;27;9764;-69
2022/03/10 08:33:53;;;;;;;;;18.00;15.80;;;;;8.61;42.74;100777.41;5135327;27;8849;-66
2022/03/10 08:36:21;;;;;;;;;14.60;11.20;;;;;8.67;43.05;100771.72;5135885;27;8829;-66
2022/03/10 08:38:48;;;;;;;;;12.40;10.80;;;;;8.76;42.23;100770.34;5132677;27;9794;-66
2022/03/10 08:41:16;;;;;;;;;15.00;13.40;;;;;8.84;42.59;100758.31;5134144;27;8813;-66
2022/03/10 08:43:44;;;;;;;;;13.40;12.60;;;;;9.03;42.32;100758.91;5135426;27;8841;-65
2022/03/10 08:46:12;;;;;;;;;12.80;11.60;;;;;9.37;42.00;100760.38;5126750;27;8827;-65
2022/03/10 08:48:41;;;;;;;;;14.60;13.80;;;;;9.78;41.59;100743.53;5093847;28;8850;-65
2022/03/10 08:51:09;;;;;;;;;7.80;6.40;;;;;10.26;40.69;100743.06;5093985;28;8838;-66
2022/03/10 08:53:37;;;;;;;;;11.60;11.20;;;;;10.74;39.93;100739.81;5094516;28;8864;-66
2022/03/10 08:56:06;;;;;;;;;13.80;12.40;;;;;11.16;39.98;100733.34;5092328;28;8874;-67
2022/03/10 08:58:34;;;;;;;;;15.20;13.00;;;;;11.50;39.21;100743.34;5131798;27;8851;-68
2022/03/10 09:01:02;;;;;;;;;11.50;10.00;;;;;11.85;38.99;100734.59;5134272;27;8845;-66
2022/03/10 09:03:50;;;;;;;;;12.25;10.00;;;;;12.18;38.71;100737.47;5125617;27;8838;-68
2022/03/10 09:06:18;;;;;;;;;15.25;14.25;;;;;12.29;38.39;100734.84;5134548;27;8910;-68
2022/03/10 09:08:46;;;;;;;;;14.50;12.00;;;;;12.34;38.53;100743.38;5115212;28;8828;-66
2022/03/10 09:11:14;;;;;;;;;16.00;15.25;;;;;12.42;38.19;100743.66;5113854;28;8808;-66
2022/03/10 09:13:44;;;;;;;;;16.00;14.25;;;;;12.44;38.16;100741.72;5113232;28;9635;-65
2022/03/10 09:16:11;;;;;;;;;6.50;6.50;;;;;12.39;38.73;100750.06;5112209;28;8879;-65
2022/03/10 09:18:41;;;;;;;;;17.50;15.50;;;;;12.33;38.40;100742.56;5133404;27;8857;-67
2022/03/10 09:21:11;;;;;;;;;19.75;16.00;;;;;12.25;39.00;100739.56;5134250;27;8969;-65
2022/03/10 09:23:39;;;;;;;;;10.00;10.00;;;;;12.16;39.29;100740.25;5134910;27;8845;-66
2022/03/10 09:26:07;;;;;;;;;17.00;17.00;;;;;12.12;39.16;100741.44;5126711;27;8836;-66
2022/03/10 09:28:35;;;;;;;;;14.50;12.50;;;;;12.08;39.18;100739.94;5115646;27;8958;-65
2022/03/10 09:31:02;;;;;;;;;18.50;17.50;;;;;12.07;39.40;100732.91;5133654;27;8818;-66
2022/03/10 09:33:32;;;;;;;;;13.75;11.75;;;;;12.06;39.10;100733.00;5135825;27;9517;-66
2022/03/10 09:36:00;;;;;;;;;18.50;18.50;;;;;12.08;39.63;100731.13;5134013;27;8942;-66
2022/03/10 09:38:27;;;;;;;;;16.00;13.50;;;;;12.12;39.36;100732.56;5134293;27;8947;-65
2022/03/10 09:40:56;;;;;;;;;15.00;13.00;;;;;12.14;39.29;100722.63;5135176;27;8814;-65
2022/03/10 09:43:23;;;;;;;;;21.00;17.50;;;;;12.20;39.49;100720.38;5135248;27;8841;-65
2022/03/10 09:45:51;;;;;;;;;14.25;13.00;;;;;12.26;39.39;100730.63;5133369;27;8845;-65
2022/03/10 09:48:19;;;;;;;;;11.25;11.00;;;;;12.34;39.17;100717.53;5135690;27;8911;-65
2022/03/10 09:50:47;;;;;;;;;17.50;15.00;;;;;12.44;39.20;100717.69;5134829;27;8841;-66
2022/03/10 09:53:15;;;;;;;;;11.50;10.50;;;;;12.58;38.73;100712.16;5135164;27;8988;-65
2022/03/10 09:55:43;;;;;;;;;7.00;6.00;;;;;12.72;38.86;100714.63;5116356;27;8843;-65
2022/03/10 09:58:12;;;;;;;;;14.50;13.00;;;;;12.89;38.82;100708.84;5113669;28;8855;-65
2022/03/10 10:00:40;;;;;;;;;15.00;15.00;;;;;13.06;38.23;100711.97;5113553;28;8865;-66
2022/03/10 10:03:08;;;;;;;;;15.00;13.00;;;;;13.28;38.03;100711.16;5113735;28;8840;-66
2022/03/10 10:05:38;;;;;;;;;10.50;9.25;;;;;13.57;37.53;100698.97;5128895;27;8829;-67
2022/03/10 10:08:06;;;;;;;;;15.00;14.00;;;;;14.00;37.18;100700.78;5115590;27;9499;-65
2022/03/10 10:10:34;;;;;;;;;14.25;12.50;;;;;14.62;36.85;100692.91;5133328;27;8837;-65
2022/03/10 10:13:11;;;;;;;;;15.50;15.00;;;;;15.50;35.11;100684.28;5132670;27;8910;-66
2022/03/10 10:15:38;;;;;;;;;5.50;5.00;;;;;16.59;33.62;100676.91;5116476;27;8849;-65
2022/03/10 10:18:06;;;;;;;;;13.50;12.75;;;;;17.73;32.96;100665.84;5112567;28;9728;-66
2022/03/10 10:20:54;;;;;;;;;10.00;9.25;;;;;19.08;31.38;100663.69;5121807;27;8984;-65
2022/03/10 10:23:22;;;;;;;;;7.00;6.75;;;;;20.11;30.46;100651.69;5121574;27;9710;-66
2022/03/10 10:25:50;;;;;;;;;8.50;6.75;;;;;20.97;29.22;100651.97;5132553;27;8846;-66
2022/03/10 10:28:31;;;;;;;;;10.20;10.20;;;;;21.93;28.29;100650.88;5132351;27;8838;-67
2022/03/10 10:30:59;;;;;;;;;11.20;10.80;;;;;22.65;28.10;100642.28;5132503;27;8929;-66
2022/03/10 10:33:27;;;;;;;;;7.60;7.60;;;;;23.37;27.75;100639.75;5132309;27;8837;-65
2022/03/10 10:35:55;;;;;;;;;8.00;7.40;;;;;23.85;26.68;100641.03;5128746;27;8856;-66
2022/03/10 10:38:23;;;;;;;;;8.80;7.80;;;;;23.96;26.42;100627.00;5116025;27;8819;-66
2022/03/10 10:40:51;;;;;;;;;7.20;7.00;;;;;24.09;26.17;100627.13;5112511;28;8885;-66
2022/03/10 10:43:18;;;;;;;;;5.00;5.00;;;;;24.26;25.76;100634.03;5111500;28;8858;-66
2022/03/10 10:45:48;;;;;;;;;5.40;4.20;;;;;24.42;25.35;100623.72;5111371;28;8866;-66
2022/03/10 10:48:16;;;;;;;;;6.00;6.00;;;;;24.66;25.21;100630.72;5123801;27;8836;-66
2022/03/10 10:50:45;;;;;;;;;6.80;5.80;;;;;25.26;24.33;100626.41;5112499;28;8840;-67
2022/03/10 10:53:12;;;;;;;;;5.80;5.80;;;;;25.27;24.30;100627.25;5124098;27;8817;-66
2022/03/10 10:55:41;;;;;;;;;5.60;5.60;;;;;25.58;24.43;100618.41;5127982;27;8849;-66
2022/03/10 10:58:09;;;;;;;;;4.20;2.00;;;;;25.92;24.04;100626.59;5132653;27;8852;-65
2022/03/10 11:00:36;;;;;;;;;2.20;2.00;;;;;26.11;23.81;100614.06;5130087;27;8822;-70
2022/03/10 11:03:04;;;;;;;;;4.00;4.00;;;;;26.19;23.60;100614.72;5133669;27;8849;-65
2022/03/10 11:05:32;;;;;;;;;2.00;2.00;;;;;26.14;23.17;100610.91;5133394;27;8830;-65
2022/03/10 11:08:00;;;;;;;;;2.60;2.60;;;;;26.12;22.59;100608.38;5132785;27;8975;-66
2022/03/10 11:10:28;;;;;;;;;2.00;2.00;;;;;26.10;23.07;100609.66;5117004;28;8846;-65
2022/03/10 11:12:56;;;;;;;;;4.00;3.00;;;;;26.15;22.78;100602.53;5111723;28;8847;-65
2022/03/10 11:15:24;;;;;;;;;3.40;3.40;;;;;26.26;22.28;100599.19;5111417;28;8827;-65
2022/03/10 11:17:51;;;;;;;;;2.00;2.00;;;;;26.26;21.99;100599.19;5111681;28;9533;-65
2022/03/10 11:20:20;;;;;;;;;2.40;2.20;;;;;25.96;22.81;100602.47;5126498;27;8834;-65
2022/03/10 11:22:47;;;;;;;;;2.80;2.40;;;;;25.89;22.17;100596.13;5132658;27;8857;-65
2022/03/10 11:25:15;;;;;;;;;4.60;4.60;;;;;25.92;22.07;100599.31;5132485;27;8860;-65
2022/03/10 11:27:43;;;;;;;;;5.40;4.60;;;;;25.76;22.45;100610.56;5132197;27;8825;-65
2022/03/10 11:30:11;;;;;;;;;5.00;5.00;;;;;25.52;22.32;100606.63;5119359;28;8820;-65
2022/03/10 11:32:39;;;;;;;;;2.00;2.00;;;;;25.35;22.27;100608.84;5111882;28;8824;-65
2022/03/10 11:35:07;;;;;;;;;4.40;2.40;;;;;25.66;21.51;100604.59;5111644;28;8859;-70
2022/03/10 11:37:34;;;;;;;;;2.00;1.80;;;;;25.94;21.30;100594.47;5111481;28;8846;-65
2022/03/10 11:40:02;;;;;;;;;2.00;1.60;;;;;26.24;21.34;100584.03;5123516;27;8832;-65
2022/03/10 11:42:30;;;;;;;;;3.20;3.20;;;;;26.51;20.91;100581.16;5136896;27;8875;-67